Time;durP1;ratioP1;P1;durP2;ratioP2;P2;SDS_P1;SDS_P2;PMS_P1;PMS_P2;Temp;Humidity;BMP_temperature;BMP_pressure;BME280_temperature;BME280_humidity;BME280_pressure;Samples;Min_cycle;Max_cycle;Signal;HPM_P1;HPM_P2
2022/04/10 00:02:03;;;;;;;;;15.00;13.00;;;;;5.76;80.87;99619.03;5076958;28;45449;-74
2022/04/10 00:04:29;;;;;;;;;18.33;18.33;;;;;5.77;80.85;99622.50;5075320;27;45593;-74
2022/04/10 00:06:54;;;;;;;;;18.33;14.00;;;;;5.76;80.93;99608.56;5076786;27;45926;-74
2022/04/10 00:09:19;;;;;;;;;13.33;13.33;;;;;5.77;81.14;99606.81;5074501;27;45489;-72
2022/04/10 00:11:45;;;;;;;;;9.67;9.00;;;;;5.77;81.02;99609.44;5076779;27;45430;-74
2022/04/10 00:14:10;;;;;;;;;26.67;19.67;;;;;5.76;81.63;99605.09;5076070;27;45399;-74
2022/04/10 00:16:35;;;;;;;;;22.67;20.00;;;;;5.73;81.40;99600.75;5076829;28;45324;-74
2022/04/10 00:19:04;;;;;;;;;27.67;24.67;;;;;5.71;81.38;99607.75;5074877;27;45422;-74
2022/04/10 00:21:31;;;;;;;;;8.67;4.00;;;;;5.65;81.37;99612.22;5076689;27;46470;-74
2022/04/10 00:23:56;;;;;;;;;21.33;20.00;;;;;5.59;82.14;99610.53;5075285;27;45533;-74
2022/04/10 00:26:22;;;;;;;;;25.00;22.33;;;;;5.48;82.12;99608.06;5076471;27;46010;-74
2022/04/10 00:28:48;;;;;;;;;25.33;23.00;;;;;5.40;82.45;99612.50;5075199;27;45439;-74
2022/04/10 00:31:13;;;;;;;;;25.33;20.33;;;;;5.35;82.41;99600.38;5076338;28;45427;-74
2022/04/10 00:33:39;;;;;;;;;24.00;22.67;;;;;5.30;82.39;99600.41;5071478;28;45591;-74
2022/04/10 00:36:05;;;;;;;;;22.33;18.00;;;;;5.28;82.28;99596.97;5076764;28;45557;-74
2022/04/10 00:38:30;;;;;;;;;22.67;19.00;;;;;5.26;82.31;99591.75;5074655;27;45537;-74
2022/04/10 00:40:55;;;;;;;;;23.00;20.00;;;;;5.27;82.50;99595.22;5076642;28;46091;-74
2022/04/10 00:43:21;;;;;;;;;18.00;15.00;;;;;5.28;82.67;99598.69;5074297;27;45404;-74
2022/04/10 00:45:46;;;;;;;;;22.33;20.67;;;;;5.23;82.72;99591.78;5075281;27;45354;-74
2022/04/10 00:48:12;;;;;;;;;23.33;21.67;;;;;5.23;82.88;99590.91;5071897;28;45566;-74
2022/04/10 00:51:39;;;;;;;;;27.33;23.00;;;;;5.23;83.56;99589.16;5070550;27;46596;-74
2022/04/10 00:53:24;;;;;;;;;18.67;17.00;;;;;5.22;83.47;99582.19;5073310;28;45662;-74
2022/04/10 00:55:49;;;;;;;;;18.33;17.33;;;;;5.24;83.19;99588.28;5075966;27;45342;-74
2022/04/10 00:58:15;;;;;;;;;13.00;12.00;;;;;5.26;83.08;99583.03;5069893;27;45562;-74
2022/04/10 01:00:40;;;;;;;;;28.33;22.33;;;;;5.28;83.20;99585.63;5065428;28;46710;-74
2022/04/10 01:03:06;;;;;;;;;26.33;23.00;;;;;5.28;83.05;99583.03;5075100;27;45561;-74
2022/04/10 01:05:32;;;;;;;;;28.33;25.00;;;;;5.26;83.17;99576.06;5071114;28;45420;-74
2022/04/10 01:07:58;;;;;;;;;24.67;19.67;;;;;5.28;83.00;99580.41;5071798;28;45439;-74
2022/04/10 01:10:24;;;;;;;;;25.67;24.67;;;;;5.26;83.12;99586.50;5069654;28;45460;-74
2022/04/10 01:12:50;;;;;;;;;27.33;23.33;;;;;5.23;83.21;99588.28;5074759;27;45400;-74
2022/04/10 01:15:15;;;;;;;;;26.67;21.33;;;;;5.17;82.87;99585.75;5070302;28;45382;-74
2022/04/10 01:17:41;;;;;;;;;24.00;23.00;;;;;5.12;83.22;99591.03;5074999;27;45339;-74
2022/04/10 01:20:09;;;;;;;;;24.00;19.67;;;;;5.07;83.12;99592.81;5074184;28;46495;-74
2022/04/10 01:22:35;;;;;;;;;22.00;18.00;;;;;5.03;82.92;99595.47;5074790;27;45475;-74
2022/04/10 01:25:06;;;;;;;;;17.00;16.33;;;;;4.97;83.15;99590.31;5068688;28;45412;-74
2022/04/10 01:27:40;;;;;;;;;23.00;18.00;;;;;4.89;82.99;99600.84;5061931;28;45418;-74
2022/04/10 01:30:07;;;;;;;;;12.67;12.33;;;;;4.82;83.14;99597.44;5073440;28;46735;-74
2022/04/10 01:32:33;;;;;;;;;13.33;12.33;;;;;4.78;83.10;99594.84;5075008;27;45406;-74
2022/04/10 01:35:01;;;;;;;;;16.33;16.33;;;;;4.74;83.14;99595.75;5074805;28;45458;-74
2022/04/10 01:37:28;;;;;;;;;17.00;13.00;;;;;4.70;83.21;99588.81;5074716;27;45581;-74
2022/04/10 01:39:54;;;;;;;;;13.67;13.67;;;;;4.68;82.70;99588.88;5072063;27;45509;-74
2022/04/10 01:42:20;;;;;;;;;13.33;11.00;;;;;4.67;82.36;99594.97;5074304;27;45387;-74
2022/04/10 01:44:45;;;;;;;;;14.33;12.00;;;;;4.67;82.66;99592.34;5073488;28;45547;-74
2022/04/10 01:47:11;;;;;;;;;15.00;13.67;;;;;4.70;83.04;99596.66;5074499;28;45461;-74
2022/04/10 01:49:37;;;;;;;;;11.00;11.00;;;;;4.71;83.78;99595.78;5073311;28;46390;-74
2022/04/10 01:52:04;;;;;;;;;11.67;10.00;;;;;4.69;82.63;99593.19;5074516;28;45316;-74
2022/04/10 01:54:31;;;;;;;;;18.00;14.67;;;;;4.70;83.27;99588.81;5074313;28;45372;-74
2022/04/10 01:56:56;;;;;;;;;16.00;16.00;;;;;4.71;83.37;99590.56;5075270;27;45420;-74
2022/04/10 01:59:22;;;;;;;;;22.33;21.00;;;;;4.71;83.80;99580.97;5073377;27;45460;-74
2022/04/10 02:01:48;;;;;;;;;21.33;18.33;;;;;4.72;83.38;99587.94;5072748;28;45442;-74
2022/04/10 02:04:14;;;;;;;;;12.00;12.00;;;;;4.71;83.34;99588.81;5072896;28;45443;-74
2022/04/10 02:06:40;;;;;;;;;17.00;15.00;;;;;4.65;83.67;99591.50;5074823;27;45450;-74
2022/04/10 02:09:07;;;;;;;;;14.67;13.00;;;;;4.57;83.66;99594.16;5074219;27;45465;-74
2022/04/10 02:11:32;;;;;;;;;13.33;11.33;;;;;4.53;83.56;99592.44;5074524;27;45400;-74
2022/04/10 02:13:58;;;;;;;;;9.67;9.33;;;;;4.50;83.36;99591.63;5074405;28;45343;-74
2022/04/10 02:16:23;;;;;;;;;10.67;9.67;;;;;4.47;83.45;99594.25;5074866;27;45455;-74
2022/04/10 02:18:49;;;;;;;;;10.33;9.33;;;;;4.42;83.13;99596.03;5070313;28;47721;-75
2022/04/10 02:21:15;;;;;;;;;12.33;11.00;;;;;4.39;83.17;99593.44;5069863;27;45425;-75
2022/04/10 02:23:41;;;;;;;;;11.00;8.33;;;;;4.35;83.55;99589.16;5066916;27;45487;-75
2022/04/10 02:26:09;;;;;;;;;8.00;7.00;;;;;4.31;83.77;99590.03;5074965;27;45456;-75
2022/04/10 02:28:34;;;;;;;;;9.33;9.00;;;;;4.27;83.85;99581.34;5073059;28;46754;-75
2022/04/10 02:31:00;;;;;;;;;11.33;9.33;;;;;4.24;83.86;99599.63;5074414;27;45350;-75
2022/04/10 02:33:26;;;;;;;;;11.00;9.67;;;;;4.20;83.72;99598.78;5070529;27;45391;-75
2022/04/10 02:35:51;;;;;;;;;12.00;10.67;;;;;4.19;83.82;99598.78;5074787;28;45518;-75
2022/04/10 02:38:17;;;;;;;;;13.33;11.00;;;;;4.19;83.86;99599.66;5072890;27;46063;-75
2022/04/10 02:40:43;;;;;;;;;13.67;13.33;;;;;4.21;83.77;99602.25;5074648;27;45543;-75
2022/04/10 02:43:10;;;;;;;;;19.00;12.67;;;;;4.20;84.24;99592.69;5073043;28;45412;-75
2022/04/10 02:45:36;;;;;;;;;11.33;11.33;;;;;4.21;84.65;99597.06;5073230;28;45357;-75
2022/04/10 02:48:01;;;;;;;;;18.67;18.33;;;;;4.21;84.71;99592.69;5071578;28;47907;-75
2022/04/10 02:50:27;;;;;;;;;18.00;16.33;;;;;4.24;85.15;99593.56;5067262;28;45486;-75
2022/04/10 02:52:53;;;;;;;;;16.33;16.00;;;;;4.25;85.14;99597.91;5073380;27;45457;-75
2022/04/10 02:55:19;;;;;;;;;17.00;16.67;;;;;4.28;84.96;99592.66;5072151;28;45420;-75
2022/04/10 02:57:44;;;;;;;;;20.67;19.33;;;;;4.27;85.18;99599.63;5073352;27;45681;-75
2022/04/10 03:00:10;;;;;;;;;21.67;20.67;;;;;4.28;84.96;99596.13;5063111;27;45448;-75
2022/04/10 03:02:39;;;;;;;;;21.33;20.33;;;;;4.30;85.23;99599.59;5074219;27;45347;-75
2022/04/10 03:05:05;;;;;;;;;19.00;18.33;;;;;4.31;85.21;99592.66;5071236;28;45617;-75
2022/04/10 03:07:30;;;;;;;;;19.00;16.33;;;;;4.33;85.12;99596.13;5072445;28;47235;-75
2022/04/10 03:09:55;;;;;;;;;21.00;18.33;;;;;4.32;85.14;99600.47;5069458;28;45420;-75
2022/04/10 03:12:21;;;;;;;;;20.67;18.67;;;;;4.31;84.48;99596.13;5078042;28;45605;-75
2022/04/10 03:14:46;;;;;;;;;22.33;21.00;;;;;4.30;84.01;99598.75;5075029;28;45528;-75
2022/04/10 03:17:12;;;;;;;;;21.67;17.67;;;;;4.28;84.55;99588.31;5077649;27;46034;-75
2022/04/10 03:19:37;;;;;;;;;22.00;19.00;;;;;4.29;84.54;99586.56;5076426;27;45443;-75
2022/04/10 03:22:02;;;;;;;;;22.00;15.00;;;;;4.29;84.32;99591.78;5077376;27;45368;-75
2022/04/10 03:24:28;;;;;;;;;27.00;25.00;;;;;4.28;83.95;99592.66;5069012;28;45403;-75
2022/04/10 03:26:53;;;;;;;;;18.00;18.00;;;;;4.28;83.75;99584.84;5077589;27;45473;-75
2022/04/10 03:29:19;;;;;;;;;21.67;20.00;;;;;4.27;84.22;99573.53;5076756;28;45430;-75
2022/04/10 03:31:45;;;;;;;;;21.00;17.67;;;;;4.28;84.16;99579.63;5077632;27;45557;-75
2022/04/10 03:34:10;;;;;;;;;22.67;21.00;;;;;4.26;84.37;99587.44;5075879;28;45642;-75
2022/04/10 03:36:35;;;;;;;;;19.67;17.00;;;;;4.26;84.49;99581.38;5077354;28;46153;-75
2022/04/10 03:39:01;;;;;;;;;17.67;15.67;;;;;4.24;84.93;99573.53;5067703;28;45537;-75
2022/04/10 03:41:26;;;;;;;;;23.00;21.67;;;;;4.23;84.67;99577.03;5071309;28;45965;-75
2022/04/10 03:43:52;;;;;;;;;20.00;20.00;;;;;4.22;84.82;99567.47;5074069;27;45358;-75
2022/04/10 03:46:17;;;;;;;;;22.00;22.00;;;;;4.20;84.48;99569.22;5077399;27;45697;-75
2022/04/10 03:48:42;;;;;;;;;30.33;25.67;;;;;4.19;84.24;99570.09;5075508;28;45353;-75
2022/04/10 03:51:08;;;;;;;;;24.00;20.67;;;;;4.15;84.31;99569.28;5077519;27;45192;-75
2022/04/10 03:53:34;;;;;;;;;24.67;21.33;;;;;4.15;84.16;99571.00;5072199;28;45542;-75
2022/04/10 03:56:00;;;;;;;;;29.67;23.00;;;;;4.14;84.15;99579.72;5070190;28;45701;-75
2022/04/10 03:58:25;;;;;;;;;22.33;20.33;;;;;4.11;83.91;99574.50;5071678;27;45541;-75
2022/04/10 04:00:51;;;;;;;;;24.33;18.33;;;;;4.11;84.20;99580.59;5070456;28;45469;-75
2022/04/10 04:03:16;;;;;;;;;17.33;16.00;;;;;4.10;84.23;99578.00;5074047;28;45330;-75
2022/04/10 04:05:42;;;;;;;;;26.00;21.00;;;;;4.09;83.62;99577.13;5076836;27;46412;-75
2022/04/10 04:08:07;;;;;;;;;18.67;17.00;;;;;4.07;84.11;99583.22;5058968;28;45471;-75
2022/04/10 04:10:34;;;;;;;;;22.67;21.33;;;;;4.05;83.90;99592.81;5076347;28;46067;-75
2022/04/10 04:13:00;;;;;;;;;29.67;21.33;;;;;4.03;83.72;99586.72;5074618;27;45589;-74
2022/04/10 04:15:26;;;;;;;;;23.33;20.00;;;;;3.97;83.79;99586.78;5076681;27;45387;-75
2022/04/10 04:17:51;;;;;;;;;25.00;23.00;;;;;3.94;83.96;99586.81;5075844;27;45452;-75
2022/04/10 04:20:17;;;;;;;;;23.67;19.33;;;;;3.94;84.19;99592.03;5076701;27;45732;-75
2022/04/10 04:22:42;;;;;;;;;26.67;21.67;;;;;3.94;83.98;99599.84;5073859;28;45625;-75
2022/04/10 04:25:08;;;;;;;;;26.67;21.00;;;;;3.93;84.27;99598.09;5076290;27;45339;-75
2022/04/10 04:27:33;;;;;;;;;29.67;23.00;;;;;3.92;84.03;99597.25;5075269;28;45381;-75
2022/04/10 04:30:01;;;;;;;;;10.67;7.33;;;;;3.93;84.17;99611.16;5076344;27;45394;-75
2022/04/10 04:32:26;;;;;;;;;28.33;25.33;;;;;3.93;84.40;99613.75;5076303;27;45523;-75
2022/04/10 04:34:52;;;;;;;;;26.33;24.67;;;;;3.90;84.24;99619.84;5075423;28;45488;-75
2022/04/10 04:37:17;;;;;;;;;33.33;29.67;;;;;3.86;84.94;99620.72;5076842;28;45473;-75
2022/04/10 04:39:43;;;;;;;;;30.67;28.00;;;;;3.86;85.01;99623.34;5072281;27;45462;-75
2022/04/10 04:42:08;;;;;;;;;33.33;28.67;;;;;3.85;85.09;99625.09;5076371;28;45668;-75
2022/04/10 04:44:34;;;;;;;;;28.67;24.00;;;;;3.87;85.32;99627.69;5075172;27;46343;-75
2022/04/10 04:46:59;;;;;;;;;32.00;29.00;;;;;3.88;85.18;99632.03;5074855;28;45400;-75
2022/04/10 04:49:27;;;;;;;;;19.00;19.00;;;;;3.90;85.14;99639.84;5075929;28;45604;-75
2022/04/10 04:51:53;;;;;;;;;29.33;24.00;;;;;3.87;85.23;99643.34;5073672;28;45342;-75
2022/04/10 04:54:19;;;;;;;;;35.67;30.33;;;;;3.82;85.34;99648.59;5080878;27;47198;-75
2022/04/10 04:56:45;;;;;;;;;30.33;27.00;;;;;3.76;85.12;99653.81;5076237;28;45296;-75
2022/04/10 04:59:14;;;;;;;;;27.67;24.00;;;;;3.73;85.52;99672.09;5063529;27;45415;-75
2022/04/10 05:01:42;;;;;;;;;26.00;25.00;;;;;3.72;85.40;99666.88;5062826;28;45423;-75
2022/04/10 05:04:09;;;;;;;;;27.33;24.00;;;;;3.73;85.38;99673.81;5070962;27;45376;-75
2022/04/10 05:06:34;;;;;;;;;23.33;21.00;;;;;3.71;85.65;99675.56;5071166;28;45723;-75
2022/04/10 05:09:00;;;;;;;;;28.67;24.67;;;;;3.69;85.56;99682.53;5067369;28;45387;-74
2022/04/10 05:11:25;;;;;;;;;25.33;24.00;;;;;3.69;85.67;99690.34;5075565;28;45418;-75
2022/04/10 05:13:51;;;;;;;;;25.33;24.67;;;;;3.67;85.94;99687.78;5073452;27;46160;-75
2022/04/10 05:16:17;;;;;;;;;23.00;21.00;;;;;3.66;85.80;99690.38;5076038;28;45417;-75
2022/04/10 05:18:42;;;;;;;;;27.67;24.33;;;;;3.66;85.80;99695.59;5069917;28;45339;-75
2022/04/10 05:21:08;;;;;;;;;34.67;31.33;;;;;3.66;86.29;99701.69;5070682;28;45586;-75
2022/04/10 05:23:33;;;;;;;;;22.67;22.67;;;;;3.67;85.36;99700.81;5072287;27;46537;-75
2022/04/10 05:25:58;;;;;;;;;25.33;21.67;;;;;3.70;85.35;99707.72;5068002;27;45467;-75
2022/04/10 05:28:24;;;;;;;;;27.00;21.00;;;;;3.74;85.55;99705.09;5063144;28;45431;-75
2022/04/10 05:30:49;;;;;;;;;24.67;19.00;;;;;3.79;85.48;99707.72;5070811;28;45380;-75
2022/04/10 05:33:15;;;;;;;;;29.33;27.00;;;;;3.84;85.33;99706.84;5070680;28;46567;-75
2022/04/10 05:35:40;;;;;;;;;28.00;24.33;;;;;3.89;85.34;99706.78;5075699;28;45488;-75
2022/04/10 05:38:06;;;;;;;;;28.00;26.00;;;;;3.96;84.96;99716.34;5071547;27;45845;-75
2022/04/10 05:40:32;;;;;;;;;25.67;23.67;;;;;4.02;85.23;99718.91;5075365;28;45316;-75
2022/04/10 05:42:58;;;;;;;;;25.00;21.00;;;;;4.10;84.95;99724.09;5072956;28;45359;-75
2022/04/10 05:45:23;;;;;;;;;22.00;19.67;;;;;4.19;85.10;99730.13;5067597;27;45378;-75
2022/04/10 05:47:49;;;;;;;;;23.33;23.00;;;;;4.25;84.86;99731.84;5073934;27;45155;-75
2022/04/10 05:50:15;;;;;;;;;24.33;21.67;;;;;4.31;85.02;99731.84;5074845;28;45286;-75
2022/04/10 05:52:46;;;;;;;;;40.67;24.67;;;;;4.37;84.80;99720.47;5074313;27;45505;-75
2022/04/10 05:55:14;;;;;;;;;28.67;28.00;;;;;4.42;85.07;99732.63;5073206;28;45374;-75
2022/04/10 05:57:41;;;;;;;;;26.00;23.67;;;;;4.47;84.46;99732.63;5073857;27;45425;-75
2022/04/10 06:00:10;;;;;;;;;25.33;23.33;;;;;4.47;83.99;99732.63;5075253;27;45407;-75
2022/04/10 06:02:36;;;;;;;;;24.67;21.00;;;;;4.47;83.91;99735.22;5071329;28;47306;-75
2022/04/10 06:05:02;;;;;;;;;33.33;25.00;;;;;4.50;83.53;99735.22;5073269;28;45417;-74
2022/04/10 06:07:27;;;;;;;;;23.67;20.67;;;;;4.53;83.38;99743.00;5074641;27;45414;-74
2022/04/10 06:09:53;;;;;;;;;28.67;26.67;;;;;4.55;83.33;99736.91;5069563;28;45556;-74
2022/04/10 06:12:18;;;;;;;;;29.00;25.00;;;;;4.59;83.49;99744.72;5072346;28;47886;-75
2022/04/10 06:14:44;;;;;;;;;30.00;24.00;;;;;4.61;83.50;99749.06;5062384;28;45416;-74
2022/04/10 06:17:09;;;;;;;;;28.33;22.67;;;;;4.66;83.21;99743.81;5074964;27;45385;-74
2022/04/10 06:19:35;;;;;;;;;34.00;27.33;;;;;4.69;83.31;99749.88;5068669;27;45643;-74
2022/04/10 06:22:01;;;;;;;;;34.33;28.33;;;;;4.75;83.56;99757.69;5074544;27;46241;-74
2022/04/10 06:24:27;;;;;;;;;32.00;29.67;;;;;4.80;83.51;99750.69;5066758;27;45372;-75
2022/04/10 06:26:53;;;;;;;;;40.33;34.67;;;;;4.87;83.14;99749.75;5063131;27;45561;-74
2022/04/10 06:29:19;;;;;;;;;31.67;27.33;;;;;4.94;83.04;99752.31;5073326;27;45468;-74
2022/04/10 06:31:45;;;;;;;;;32.67;29.33;;;;;5.01;83.14;99759.25;5074479;27;45429;-74
2022/04/10 06:34:11;;;;;;;;;40.00;31.67;;;;;5.08;82.97;99753.09;5069625;28;45340;-74
2022/04/10 06:36:38;;;;;;;;;31.33;28.33;;;;;5.16;83.11;99754.78;5074672;27;45434;-74
2022/04/10 06:39:04;;;;;;;;;29.33;25.67;;;;;5.25;82.27;99759.91;5071054;28;45482;-74
2022/04/10 06:41:29;;;;;;;;;26.67;23.33;;;;;5.30;82.14;99751.16;5074409;28;45395;-74
2022/04/10 06:43:55;;;;;;;;;26.33;26.33;;;;;5.35;81.89;99757.22;5074007;28;45543;-75
2022/04/10 06:46:21;;;;;;;;;31.00;26.67;;;;;5.40;81.91;99752.81;5078268;28;46062;-74
2022/04/10 06:48:47;;;;;;;;;35.00;30.33;;;;;5.44;81.58;99758.00;5072297;27;45426;-74
2022/04/10 06:51:13;;;;;;;;;30.33;25.33;;;;;5.49;81.54;99752.75;5077435;27;45494;-75
2022/04/10 06:53:38;;;;;;;;;29.00;22.33;;;;;5.53;81.44;99755.28;5078062;27;45463;-74
2022/04/10 06:56:04;;;;;;;;;19.00;18.33;;;;;5.57;81.34;99754.38;5077924;27;45537;-74
2022/04/10 06:58:29;;;;;;;;;28.00;23.67;;;;;5.61;81.20;99747.38;5077326;27;45395;-75
2022/04/10 07:00:54;;;;;;;;;29.00;25.67;;;;;5.65;80.88;99754.31;5078046;27;45483;-74
2022/04/10 07:03:20;;;;;;;;;33.00;28.00;;;;;5.71;80.84;99743.78;5074435;28;45418;-74
2022/04/10 07:05:45;;;;;;;;;34.33;25.00;;;;;5.76;80.51;99743.72;5072111;28;45313;-74
2022/04/10 07:08:11;;;;;;;;;30.67;29.33;;;;;5.78;80.06;99745.47;5072973;27;45484;-74
2022/04/10 07:10:39;;;;;;;;;34.00;29.00;;;;;5.84;80.03;99744.53;5072774;28;46600;-74
2022/04/10 07:13:05;;;;;;;;;32.00;29.33;;;;;5.87;79.96;99742.72;5073108;27;45427;-74
2022/04/10 07:15:30;;;;;;;;;32.33;30.00;;;;;5.92;79.90;99750.56;5072026;28;45399;-74
2022/04/10 07:17:57;;;;;;;;;34.00;30.00;;;;;5.99;79.82;99743.53;5075405;28;45325;-74
2022/04/10 07:20:26;;;;;;;;;31.00;27.00;;;;;6.05;79.59;99735.56;5065796;28;46596;-74
2022/04/10 07:25:36;;;;;;;;;35.00;30.67;;;;;6.17;79.39;99730.22;5073241;28;45374;-74
2022/04/10 07:28:02;;;;;;;;;33.00;29.33;;;;;6.22;79.13;99733.63;5075182;27;45361;-74
2022/04/10 07:30:27;;;;;;;;;23.00;22.00;;;;;6.28;79.34;99733.56;5075241;27;45395;-74
2022/04/10 07:32:57;;;;;;;;;26.67;25.00;;;;;6.40;78.95;99745.59;5076097;27;45536;-74
2022/04/10 07:35:24;;;;;;;;;33.67;28.33;;;;;6.49;78.74;99746.38;5075879;28;45476;-74
2022/04/10 07:37:50;;;;;;;;;29.33;27.33;;;;;6.58;78.67;99747.97;5076547;27;45582;-72
2022/04/10 07:40:16;;;;;;;;;29.67;28.67;;;;;6.74;78.79;99748.63;5073864;28;45436;-67
2022/04/10 07:42:45;;;;;;;;;22.67;22.33;;;;;6.86;78.14;99746.72;5077124;27;45379;-67
2022/04/10 07:47:25;;;;;;;;;30.00;25.33;;;;;6.97;77.45;99744.78;5069924;28;45550;-67
2022/04/10 07:48:01;;;;;;;;;20.67;19.33;;;;;7.10;76.81;99747.19;5076094;27;45439;-68
2022/04/10 07:50:28;;;;;;;;;22.67;17.67;;;;;7.18;75.60;99745.34;5076648;27;45372;-63
2022/04/10 07:52:54;;;;;;;;;17.67;16.67;;;;;7.22;75.24;99742.63;5075273;27;45595;-67
2022/04/10 07:55:20;;;;;;;;;20.67;18.33;;;;;7.29;75.46;99741.63;5073160;28;45542;-67
2022/04/10 07:57:45;;;;;;;;;22.33;17.00;;;;;7.36;74.85;99734.53;5075837;27;45471;-67
2022/04/10 08:00:12;;;;;;;;;25.00;21.00;;;;;7.44;74.24;99734.38;5066070;28;47217;-69
2022/04/10 08:02:38;;;;;;;;;17.00;16.00;;;;;7.52;74.39;99729.88;5076652;27;45379;-67
2022/04/10 08:05:04;;;;;;;;;16.00;14.33;;;;;7.59;73.54;99727.09;5074532;27;45366;-68
2022/04/10 08:07:30;;;;;;;;;13.00;12.33;;;;;7.65;72.90;99728.75;5075862;27;45504;-67
2022/04/10 08:09:55;;;;;;;;;23.00;21.00;;;;;7.71;72.96;99726.00;5072616;28;45471;-67
2022/04/10 08:12:20;;;;;;;;;14.33;14.00;;;;;7.75;72.14;99724.19;5071158;27;45418;-67
2022/04/10 08:14:48;;;;;;;;;15.33;12.33;;;;;7.80;72.55;99719.72;5074414;27;45366;-67
2022/04/10 08:17:14;;;;;;;;;15.33;15.00;;;;;7.84;72.37;99716.16;5074990;28;45587;-67
2022/04/10 08:19:39;;;;;;;;;21.00;15.67;;;;;7.91;71.91;99720.38;5071790;28;46509;-66
2022/04/10 08:22:04;;;;;;;;;23.00;17.00;;;;;7.97;71.17;99721.13;5072417;27;45402;-67
2022/04/10 08:24:30;;;;;;;;;19.00;16.33;;;;;8.03;71.76;99718.41;5074812;27;45539;-68
2022/04/10 08:26:56;;;;;;;;;18.67;18.67;;;;;8.09;71.04;99711.25;5075913;27;45595;-69
2022/04/10 08:29:21;;;;;;;;;19.67;18.67;;;;;8.12;70.69;99709.44;5073437;28;46462;-68
2022/04/10 08:31:47;;;;;;;;;17.33;15.33;;;;;8.16;70.85;99713.75;5076071;27;45420;-68
2022/04/10 08:34:13;;;;;;;;;13.67;13.67;;;;;8.17;70.12;99707.59;5074250;28;45416;-68
2022/04/10 08:36:39;;;;;;;;;16.33;13.67;;;;;8.24;69.90;99700.44;5076328;27;45550;-68
2022/04/10 08:39:05;;;;;;;;;15.00;14.67;;;;;8.30;69.48;99705.56;5085521;27;47342;-68
2022/04/10 08:41:33;;;;;;;;;12.00;10.67;;;;;8.32;69.61;99709.94;5058882;28;45321;-68
2022/04/10 08:44:03;;;;;;;;;12.00;10.00;;;;;8.40;69.11;99707.13;5075985;28;45361;-68
2022/04/10 08:46:29;;;;;;;;;9.33;8.67;;;;;8.46;68.85;99707.00;5076118;27;45484;-68
2022/04/10 08:48:57;;;;;;;;;10.33;10.33;;;;;8.55;67.84;99705.91;5075908;27;45483;-68
2022/04/10 08:51:24;;;;;;;;;8.67;8.67;;;;;8.61;68.14;99706.66;5076263;27;45473;-68
2022/04/10 08:53:52;;;;;;;;;9.67;6.67;;;;;8.64;67.36;99709.22;5075204;28;45426;-70
2022/04/10 08:56:18;;;;;;;;;11.33;10.67;;;;;8.68;67.50;99710.00;5070750;28;45478;-67
2022/04/10 08:58:43;;;;;;;;;6.00;6.00;;;;;8.74;67.67;99704.59;5067793;28;46612;-66
2022/04/10 09:01:11;;;;;;;;;8.00;7.33;;;;;8.80;66.60;99695.72;5075071;27;45525;-69
2022/04/10 09:03:37;;;;;;;;;9.00;9.00;;;;;8.84;66.92;99702.63;5073362;28;45281;-68
2022/04/10 09:06:04;;;;;;;;;6.00;6.00;;;;;8.90;66.67;99703.34;5075372;27;45418;-68
2022/04/10 09:08:29;;;;;;;;;10.00;7.75;;;;;8.98;65.71;99697.91;5071229;28;45506;-68
2022/04/10 09:10:56;;;;;;;;;7.33;7.33;;;;;9.04;66.04;99695.13;5071672;27;45412;-68
2022/04/10 09:13:46;;;;;;;;;7.25;7.25;;;;;9.07;65.84;99697.66;5074297;28;45436;-68
2022/04/10 09:16:17;;;;;;;;;9.67;8.00;;;;;9.11;65.33;99696.69;5075137;27;45317;-68
2022/04/10 09:18:46;;;;;;;;;8.25;6.00;;;;;9.19;65.16;99691.25;5072380;27;45455;-68
2022/04/10 09:21:12;;;;;;;;;6.67;5.00;;;;;9.23;64.11;99688.47;5066381;28;45381;-68
2022/04/10 09:23:37;;;;;;;;;6.00;6.00;;;;;9.25;64.38;99691.94;5073556;27;45606;-68
2022/04/10 09:26:03;;;;;;;;;7.00;7.00;;;;;9.29;64.30;99682.22;5070441;27;45333;-67
2022/04/10 09:28:41;;;;;;;;;8.50;7.25;;;;;9.31;64.11;99683.91;5068360;28;45581;-67
2022/04/10 09:31:26;;;;;;;;;6.33;5.67;;;;;9.33;63.54;99686.50;5073906;28;45420;-67
2022/04/10 09:33:52;;;;;;;;;9.33;8.67;;;;;9.33;63.85;99684.72;5073826;27;45406;-68
2022/04/10 09:36:33;;;;;;;;;6.67;6.67;;;;;9.38;63.61;99682.81;5067293;28;45682;-69
2022/04/10 09:38:59;;;;;;;;;11.33;9.33;;;;;9.47;63.02;99679.09;5063471;28;45400;-68
2022/04/10 09:41:25;;;;;;;;;11.75;5.00;;;;;9.57;61.79;99683.19;5072106;27;45505;-69
2022/04/10 09:43:50;;;;;;;;;5.75;4.00;;;;;9.66;61.44;99679.47;5072823;27;45300;-71
2022/04/10 09:46:16;;;;;;;;;4.50;3.25;;;;;9.73;61.31;99673.09;5074885;27;45481;-71
2022/04/10 09:48:41;;;;;;;;;4.00;4.00;;;;;9.79;60.47;99670.31;5072200;28;46460;-70
2022/04/10 09:51:10;;;;;;;;;7.00;5.50;;;;;9.89;59.92;99676.16;5059585;27;45505;-68
2022/04/10 09:53:37;;;;;;;;;6.75;6.00;;;;;9.97;59.61;99668.94;5072575;27;45472;-70
2022/04/10 09:56:05;;;;;;;;;3.75;3.75;;;;;10.05;60.50;99659.88;5070440;27;45573;-71
2022/04/10 09:58:32;;;;;;;;;5.00;4.00;;;;;10.12;59.65;99648.25;5073281;27;46191;-69
2022/04/10 10:00:59;;;;;;;;;5.00;5.00;;;;;10.19;59.16;99654.25;5068982;27;45442;-70
2022/04/10 10:03:29;;;;;;;;;3.00;3.00;;;;;10.27;60.36;99654.88;5072648;28;45381;-68
2022/04/10 10:05:56;;;;;;;;;2.75;2.75;;;;;10.28;58.23;99651.34;5072812;28;45438;-71
2022/04/10 10:08:23;;;;;;;;;2.00;2.00;;;;;10.29;59.06;99639.03;5073140;27;45479;-71
2022/04/10 10:10:48;;;;;;;;;3.75;3.75;;;;;10.29;58.28;99637.25;5069927;28;45305;-71
2022/04/10 10:13:14;;;;;;;;;4.00;4.00;;;;;10.30;58.59;99636.34;5071012;28;45482;-69
2022/04/10 10:15:43;;;;;;;;;3.25;3.25;;;;;10.34;57.60;99630.06;5074414;28;45427;-71
2022/04/10 10:18:10;;;;;;;;;3.75;3.75;;;;;10.40;57.05;99618.47;5070747;28;45466;-70
2022/04/10 10:20:36;;;;;;;;;4.00;4.00;;;;;10.39;57.56;99614.97;5070068;28;45329;-70
2022/04/10 10:23:12;;;;;;;;;5.00;5.00;;;;;10.43;58.00;99615.72;5070925;27;45545;-70
2022/04/10 10:26:00;;;;;;;;;5.00;5.00;;;;;10.52;58.27;99610.19;5073789;27;45384;-70
2022/04/10 10:28:55;;;;;;;;;7.00;7.00;;;;;10.64;57.49;99604.50;5063528;28;46204;-70
2022/04/10 10:32:05;;;;;;;;;7.00;7.00;;;;;10.77;57.58;99602.31;5064950;28;45372;-70
2022/04/10 10:34:32;;;;;;;;;8.75;8.25;;;;;10.90;57.08;99592.22;5072047;28;45448;-70
2022/04/10 10:37:01;;;;;;;;;7.75;7.75;;;;;10.99;57.01;99582.22;5072684;28;45424;-70
2022/04/10 10:39:33;;;;;;;;;8.75;6.25;;;;;11.07;57.06;99584.59;5073854;27;46353;-70
2022/04/10 10:42:12;;;;;;;;;7.25;7.25;;;;;11.14;57.26;99580.84;5073183;27;45481;-70
2022/04/10 10:44:38;;;;;;;;;5.50;5.25;;;;;11.18;56.39;99580.69;5073689;27;45350;-70
2022/04/10 10:47:04;;;;;;;;;6.50;5.75;;;;;11.21;55.93;99577.06;5074298;27;45340;-71
2022/04/10 10:49:31;;;;;;;;;6.25;6.00;;;;;11.23;55.91;99577.03;5074205;27;46052;-71
2022/04/10 10:51:58;;;;;;;;;8.25;8.25;;;;;11.27;55.41;99571.56;5073900;27;45411;-72
2022/04/10 10:54:42;;;;;;;;;6.25;4.00;;;;;11.36;55.72;99560.69;5073836;27;45546;-70
2022/04/10 10:57:28;;;;;;;;;7.00;5.00;;;;;11.45;54.97;99557.69;5073274;28;45428;-71
2022/04/10 11:00:04;;;;;;;;;7.00;7.00;;;;;11.51;54.92;99552.22;5073869;27;46459;-69
2022/04/10 11:02:36;;;;;;;;;7.00;7.00;;;;;11.57;55.39;99542.31;5074156;27;45399;-69
2022/04/10 11:05:34;;;;;;;;;6.50;6.50;;;;;11.64;55.24;99539.41;5074593;27;45707;-71
2022/04/10 11:08:07;;;;;;;;;9.00;5.75;;;;;11.71;55.00;99538.25;5073358;27;45576;-70
2022/04/10 11:10:37;;;;;;;;;8.25;7.00;;;;;11.81;54.77;99536.16;5073396;27;45479;-71
2022/04/10 11:13:09;;;;;;;;;4.50;4.50;;;;;11.94;54.07;99529.47;5073383;27;45558;-71
2022/04/10 11:15:48;;;;;;;;;4.00;4.00;;;;;12.05;53.44;99522.00;5071044;27;45537;-72
2022/04/10 11:18:35;;;;;;;;;6.50;3.25;;;;;12.17;52.15;99523.28;5074191;27;45301;-71
2022/04/10 11:21:17;;;;;;;;;3.00;3.00;;;;;12.27;50.64;99518.47;5073974;27;46083;-72
2022/04/10 11:23:46;;;;;;;;;3.25;3.00;;;;;12.26;50.16;99511.44;5073342;27;45514;-71
2022/04/10 11:26:20;;;;;;;;;2.75;2.75;;;;;12.30;50.85;99507.78;5069182;28;45365;-71
2022/04/10 11:29:00;;;;;;;;;5.50;5.50;;;;;12.35;50.07;99509.31;5070193;28;45431;-72
2022/04/10 11:31:32;;;;;;;;;2.00;2.00;;;;;12.42;49.97;99512.53;5076273;28;45494;-72
2022/04/10 11:34:07;;;;;;;;;3.75;3.50;;;;;12.48;50.37;99504.38;5077330;27;45406;-73